This is the latest recevied weather packets stored in our database for station/object AE0NK. If no packets are shown the sender has not sent any weather packets the latest 1 day(s).
| Time | Temp. | Humidity | Pressure | Rain* | Wind** | Luminosity | Snow |
|---|---|---|---|---|---|---|---|
| 1777996994 | 11.67° C | 38% | 1011.4 hPa | 0 mm | 2.24 m/s, 308° | 338 W/m² | - |
| 1777996709 | 11.67° C | 43% | 1011.3 hPa | 0 mm | 1.34 m/s, 20° | 292 W/m² | - |
| 1777996406 | 11.67° C | 40% | 1011.3 hPa | 0 mm | 1.34 m/s, 316° | 327 W/m² | - |
| 1777996103 | 11.67° C | 41% | 1011.3 hPa | 0 mm | 1.34 m/s, 305° | 348 W/m² | - |
| 1777995801 | 11.67° C | 42% | 1011.3 hPa | 0 mm | 0.89 m/s, 308° | 330 W/m² | - |
| 1777995496 | 11.67° C | 40% | 1011.3 hPa | 0 mm | 0 m/s | 302 W/m² | - |
| 1777995194 | 11.67° C | 41% | 1011.3 hPa | 0 mm | 0.45 m/s, 200° | 376 W/m² | - |
| 1777994912 | 11.11° C | 42% | 1011.3 hPa | 0 mm | 0.45 m/s, 300° | 355 W/m² | - |
| 1777994608 | 11.11° C | 44% | 1011.2 hPa | 0 mm | 0.45 m/s, 14° | 311 W/m² | - |
| 1777994305 | 11.11° C | 45% | 1011.2 hPa | 0 mm | 0.45 m/s, 335° | 334 W/m² | - |
| 1777994004 | 11.11° C | 42% | 1011.2 hPa | 0 mm | 0.45 m/s, 306° | 318 W/m² | - |
| 1777993701 | 11.11° C | 41% | 1010.9 hPa | 0 mm | 1.34 m/s, 288° | 299 W/m² | - |
| 1777993401 | 11.11° C | 43% | 1010.9 hPa | 0 mm | 0.89 m/s, 333° | 339 W/m² | - |
| 1777993094 | 11.11° C | 42% | 1010.9 hPa | 0 mm | 0.45 m/s, 271° | 308 W/m² | - |
| 1777992792 | 11.11° C | 44% | 1011 hPa | 0 mm | 0.89 m/s, 27° | 304 W/m² | - |
| 1777992510 | 10.56° C | 47% | 1010.9 hPa | 0 mm | 0.45 m/s, 310° | 246 W/m² | - |
| 1777992209 | 10.56° C | 44% | 1010.9 hPa | 0 mm | 1.34 m/s, 241° | 253 W/m² | - |
| 1777991907 | 10.56° C | 49% | 1011 hPa | 0 mm | 0.45 m/s, 300° | 246 W/m² | - |
| 1777991604 | 10.56° C | 44% | 1010.8 hPa | 0 mm | 0.45 m/s, 293° | 209 W/m² | - |
| 1777991303 | 10.56° C | 48% | 1010.7 hPa | 0 mm | 0.45 m/s, 325° | 251 W/m² | - |
| 1777990999 | 10.56° C | 48% | 1010.6 hPa | 0 mm | 0.45 m/s, 298° | 239 W/m² | - |
| 1777990718 | 10.56° C | 46% | 1010.5 hPa | 0 mm | 0.89 m/s, 266° | 327 W/m² | - |
| 1777990409 | 10.56° C | 50% | 1010.4 hPa | 0 mm | 0.45 m/s, 321° | 220 W/m² | - |
| 1777990108 | 10.56° C | 49% | 1010.3 hPa | 0 mm | 0.45 m/s, 95° | 283 W/m² | - |
| 1777989805 | 10.56° C | 48% | 1010.3 hPa | 0 mm | 0.45 m/s, 290° | 341 W/m² | - |
* Rain latest hour (hover to see other rain measurements)
** Current wind speed in m/s (hover to see current wind gust speed)